Time;durP1;ratioP1;P1;durP2;ratioP2;P2;SDS_P1;SDS_P2;PMS_P1;PMS_P2;Temp;Humidity;BMP_temperature;BMP_pressure;BME280_temperature;BME280_humidity;BME280_pressure;Samples;Min_cycle;Max_cycle;Signal;HPM_P1;HPM_P2
2022/04/15 00:00:04;;;;;;;23.17;13.43;;;;;;;9.15;100.00;102110.34;4947127;28;20398;-77
2022/04/15 00:02:30;;;;;;;31.67;13.60;;;;;;;9.12;100.00;102112.38;4983990;28;20077;-78
2022/04/15 00:04:57;;;;;;;23.95;13.52;;;;;;;9.07;100.00;102108.97;4946401;28;20046;-77
2022/04/15 00:07:23;;;;;;;26.45;14.23;;;;;;;9.08;100.00;102118.94;4958721;28;20363;-78
2022/04/15 00:09:48;;;;;;;30.98;14.23;;;;;;;9.05;100.00;102122.72;4960145;28;20411;-78
2022/04/15 00:12:18;;;;;;;25.73;13.48;;;;;;;9.05;100.00;102108.16;4930400;28;20050;-78
2022/04/15 00:14:44;;;;;;;25.75;13.38;;;;;;;8.94;100.00;102109.63;4976179;28;20084;-77
2022/04/15 00:17:11;;;;;;;21.13;13.27;;;;;;;8.94;100.00;102108.75;4992915;28;20030;-77
2022/04/15 00:19:37;;;;;;;20.75;13.48;;;;;;;8.90;100.00;102113.47;4976179;28;20047;-77
2022/04/15 00:22:03;;;;;;;22.13;13.20;;;;;;;8.89;100.00;102111.72;4926394;28;20347;-77
2022/04/15 00:24:28;;;;;;;31.48;14.15;;;;;;;8.83;100.00;102112.91;4973466;28;20047;-78
2022/04/15 00:26:53;;;;;;;27.60;14.48;;;;;;;8.86;100.00;102120.06;4938144;28;20496;-77
2022/04/15 00:29:19;;;;;;;24.67;13.80;;;;;;;8.91;100.00;102117.09;4957516;28;20046;-77
2022/04/15 00:31:46;;;;;;;24.05;13.05;;;;;;;8.78;100.00;102119.56;4963486;28;20034;-77
2022/04/15 00:34:11;;;;;;;24.83;14.18;;;;;;;8.71;100.00;102123.59;4976052;28;20042;-78
2022/04/15 00:36:36;;;;;;;31.50;15.07;;;;;;;8.62;100.00;102120.38;4970858;28;20034;-77
2022/04/15 00:39:02;;;;;;;27.98;14.73;;;;;;;8.69;100.00;102120.94;4954063;28;20034;-77
2022/04/15 00:41:27;;;;;;;27.42;14.10;;;;;;;8.72;100.00;102134.41;4956600;28;20035;-77
2022/04/15 00:43:54;;;;;;;25.23;14.27;;;;;;;8.65;100.00;102127.50;4959292;28;20125;-77
2022/04/15 00:46:20;;;;;;;27.98;15.20;;;;;;;8.75;100.00;102127.91;4989607;28;20038;-77
2022/04/15 00:48:45;;;;;;;27.98;15.15;;;;;;;8.62;100.00;102130.38;4952542;28;20090;-77
2022/04/15 00:51:12;;;;;;;26.52;14.52;;;;;;;8.53;100.00;102130.88;4961048;28;20537;-77
2022/04/15 00:53:40;;;;;;;25.65;14.75;;;;;;;8.39;100.00;102128.78;4959984;28;20039;-77
2022/04/15 00:56:08;;;;;;;28.52;14.43;;;;;;;8.42;100.00;102126.75;4966864;28;20086;-78
2022/04/15 00:58:35;;;;;;;25.92;14.23;;;;;;;8.42;100.00;102128.63;4954211;28;20038;-77
2022/04/15 01:01:01;;;;;;;24.88;14.55;;;;;;;8.48;100.00;102127.44;4977828;28;20070;-78
2022/04/15 01:03:29;;;;;;;30.35;14.93;;;;;;;8.45;100.00;102133.97;4960478;28;20039;-77
2022/04/15 01:05:58;;;;;;;27.52;13.55;;;;;;;8.40;100.00;102139.59;4942949;28;20034;-77
2022/04/15 01:08:27;;;;;;;28.27;14.38;;;;;;;8.28;100.00;102130.19;4969176;28;20039;-77
2022/04/15 01:10:56;;;;;;;25.55;14.50;;;;;;;8.26;100.00;102128.47;4969722;28;20031;-77
2022/04/15 01:13:24;;;;;;;30.77;15.20;;;;;;;8.26;100.00;102137.56;4971893;28;20042;-77
2022/04/15 01:15:55;;;;;;;25.35;14.80;;;;;;;8.33;100.00;102137.25;4958374;28;20030;-77
2022/04/15 01:18:21;;;;;;;27.40;14.82;;;;;;;8.23;100.00;102143.19;4971750;28;20447;-77
2022/04/15 01:20:49;;;;;;;28.45;14.98;;;;;;;8.22;100.00;102135.94;4941197;29;20038;-77
2022/04/15 01:23:14;;;;;;;27.20;14.23;;;;;;;8.28;100.00;102142.97;4949751;29;20046;-77
2022/04/15 01:25:40;;;;;;;31.50;13.27;;;;;;;8.23;100.00;102142.28;4968700;28;20057;-77
2022/04/15 01:28:06;;;;;;;32.78;15.07;;;;;;;8.18;100.00;102145.25;4969779;28;20038;-78
2022/04/15 01:30:31;;;;;;;27.55;14.77;;;;;;;8.14;100.00;102151.78;4959225;28;20387;-77
2022/04/15 01:32:57;;;;;;;29.80;14.27;;;;;;;8.13;100.00;102141.81;4966771;28;20106;-77
2022/04/15 01:35:22;;;;;;;30.80;14.88;;;;;;;8.08;100.00;102158.44;4971608;28;20116;-77
2022/04/15 01:37:49;;;;;;;32.83;14.98;;;;;;;8.04;100.00;102154.06;4972505;28;20039;-77
2022/04/15 01:40:17;;;;;;;35.88;15.45;;;;;;;8.00;100.00;102151.56;4961398;28;20106;-77
2022/04/15 01:42:44;;;;;;;28.42;14.20;;;;;;;8.01;100.00;102162.41;4950429;29;20043;-77
2022/04/15 01:45:11;;;;;;;32.45;14.73;;;;;;;8.01;100.00;102156.94;4941641;28;20031;-77
2022/04/15 01:47:37;;;;;;;33.95;15.88;;;;;;;7.99;100.00;102161.59;4971691;28;20490;-77
2022/04/15 01:50:04;;;;;;;29.60;14.30;;;;;;;7.99;100.00;102163.44;4949914;28;20054;-77
2022/04/15 01:52:30;;;;;;;30.15;14.68;;;;;;;8.00;100.00;102157.91;4973245;28;20063;-78
2022/04/15 01:54:55;;;;;;;30.48;15.73;;;;;;;8.03;100.00;102167.78;4956289;29;20550;-78
2022/04/15 01:57:20;;;;;;;32.60;16.23;;;;;;;7.95;100.00;102165.41;4963382;28;20109;-77
2022/04/15 01:59:46;;;;;;;30.95;17.38;;;;;;;7.91;100.00;102175.59;4939512;29;20043;-77
2022/04/15 02:02:12;;;;;;;31.05;15.30;;;;;;;7.96;100.00;102166.31;4959990;28;20513;-77
2022/04/15 02:04:37;;;;;;;29.35;15.00;;;;;;;8.05;100.00;102171.31;4962758;28;20487;-77
2022/04/15 02:07:03;;;;;;;25.33;14.27;;;;;;;7.98;100.00;102168.00;4960753;28;20086;-77
2022/04/15 02:09:29;;;;;;;26.48;15.40;;;;;;;7.97;100.00;102176.25;4964306;28;20031;-77
2022/04/15 02:11:55;;;;;;;27.23;14.52;;;;;;;7.87;100.00;102173.97;4968046;28;20124;-77
2022/04/15 02:14:21;;;;;;;30.33;17.10;;;;;;;7.71;100.00;102172.91;4966364;28;20035;-77
2022/04/15 02:16:50;;;;;;;31.25;16.90;;;;;;;7.68;100.00;102182.09;4970823;28;20105;-76
2022/04/15 02:19:16;;;;;;;36.58;17.00;;;;;;;7.69;100.00;102181.16;4972663;28;20035;-77
2022/04/15 02:21:41;;;;;;;30.70;15.70;;;;;;;7.63;100.00;102172.38;4975481;28;20045;-77
2022/04/15 02:24:07;;;;;;;32.60;17.25;;;;;;;7.71;100.00;102187.41;4969700;28;20487;-78
2022/04/15 02:26:33;;;;;;;35.58;16.17;;;;;;;7.70;100.00;102190.22;4958078;28;20085;-77
2022/04/15 02:28:59;;;;;;;34.38;17.85;;;;;;;7.61;100.00;102174.25;4951500;29;20078;-77
2022/04/15 02:31:25;;;;;;;34.25;17.42;;;;;;;7.65;100.00;102189.53;4956798;28;20044;-78
2022/04/15 02:33:50;;;;;;;38.28;17.30;;;;;;;7.52;100.00;102192.78;4953467;28;20568;-78
2022/04/15 02:36:16;;;;;;;43.22;17.38;;;;;;;7.50;100.00;102189.25;4942577;28;20046;-78
2022/04/15 02:38:42;;;;;;;39.13;18.00;;;;;;;7.52;100.00;102186.47;4957796;28;20047;-77
2022/04/15 02:41:07;;;;;;;36.83;18.23;;;;;;;7.50;100.00;102192.00;4972928;28;20406;-77
2022/04/15 02:43:33;;;;;;;38.22;19.48;;;;;;;7.60;100.00;102188.88;4974177;28;20039;-77
2022/04/15 02:45:59;;;;;;;40.53;17.10;;;;;;;7.57;100.00;102194.44;4975187;28;20046;-77
2022/04/15 02:48:25;;;;;;;37.75;17.38;;;;;;;7.57;100.00;102191.72;4961389;28;20032;-77
2022/04/15 02:50:51;;;;;;;33.20;16.75;;;;;;;7.52;100.00;102186.47;4962971;28;20122;-77
2022/04/15 02:53:17;;;;;;;37.60;17.02;;;;;;;7.58;100.00;102198.97;4944149;29;20113;-77
2022/04/15 02:55:42;;;;;;;37.47;17.80;;;;;;;7.46;100.00;102194.91;4971122;28;20569;-77
2022/04/15 02:58:08;;;;;;;40.60;18.45;;;;;;;7.49;100.00;102202.97;4972584;28;20058;-77
2022/04/15 03:00:33;;;;;;;35.80;19.00;;;;;;;7.45;100.00;102196.75;4960928;28;20720;-77
2022/04/15 03:02:59;;;;;;;46.00;20.30;;;;;;;7.49;100.00;102202.97;4977796;28;20042;-77
2022/04/15 03:05:25;;;;;;;47.22;20.98;;;;;;;7.36;100.00;102203.53;4973145;28;20046;-77
2022/04/15 03:07:50;;;;;;;40.05;19.60;;;;;;;7.39;100.00;102201.59;4968920;28;20030;-77
2022/04/15 03:10:15;;;;;;;37.50;18.92;;;;;;;7.49;100.00;102198.41;4973037;28;20044;-77
2022/04/15 03:12:41;;;;;;;40.95;19.48;;;;;;;7.49;100.00;102198.41;4986148;28;20051;-77
2022/04/15 03:15:09;;;;;;;44.78;19.92;;;;;;;7.44;100.00;102192.25;4966226;28;20126;-77
2022/04/15 03:17:35;;;;;;;41.80;19.45;;;;;;;7.35;100.00;102192.69;4983116;28;20127;-77
2022/04/15 03:20:06;;;;;;;41.80;20.50;;;;;;;7.33;100.00;102183.69;4974805;28;20054;-77
2022/04/15 03:22:42;;;;;;;41.15;19.20;;;;;;;7.27;100.00;102198.47;4975118;28;20525;-78
2022/04/15 03:25:12;;;;;;;41.22;19.67;;;;;;;7.24;100.00;102187.69;4981189;28;20057;-77
2022/04/15 03:27:37;;;;;;;48.42;21.02;;;;;;;7.20;100.00;102187.88;4967066;28;20098;-77
2022/04/15 03:30:04;;;;;;;47.55;20.83;;;;;;;7.23;100.00;102199.56;4948643;28;20034;-77
2022/04/15 03:32:30;;;;;;;43.08;22.30;;;;;;;7.24;100.00;102200.44;4978923;28;20065;-77
2022/04/15 03:34:56;;;;;;;50.67;22.75;;;;;;;7.18;100.00;102191.59;4991360;28;20038;-77
2022/04/15 03:37:22;;;;;;;54.30;22.38;;;;;;;7.21;100.00;102204.16;4954025;28;20050;-77
2022/04/15 03:39:47;;;;;;;55.42;25.30;;;;;;;7.17;100.00;102203.41;4967858;28;20138;-77
2022/04/15 03:42:13;;;;;;;51.97;22.50;;;;;;;7.22;100.00;102205.06;4976053;28;20034;-77
2022/04/15 03:44:39;;;;;;;59.30;23.67;;;;;;;7.18;100.00;102198.84;4975171;28;20119;-77
2022/04/15 03:47:05;;;;;;;43.88;21.60;;;;;;;7.22;100.00;102205.06;4990761;28;20062;-77
2022/04/15 03:49:31;;;;;;;50.58;22.45;;;;;;;7.15;100.00;102207.19;4973170;28;20493;-77
2022/04/15 03:51:57;;;;;;;57.03;22.92;;;;;;;7.21;100.00;102203.28;4977972;28;20038;-77
2022/04/15 03:54:23;;;;;;;50.13;22.60;;;;;;;7.17;100.00;102203.41;4975356;28;20061;-78
2022/04/15 03:56:48;;;;;;;47.72;21.80;;;;;;;7.18;100.00;102205.19;4971658;28;20050;-77
2022/04/15 03:59:14;;;;;;;53.90;23.67;;;;;;;7.06;100.00;102211.16;4965564;28;20051;-77
2022/04/15 04:01:40;;;;;;;49.85;23.55;;;;;;;7.15;100.00;102218.94;4952816;28;20042;-78
2022/04/15 04:04:05;;;;;;;50.10;23.00;;;;;;;7.16;100.00;102212.53;4938657;28;20062;-77
2022/04/15 04:06:31;;;;;;;54.42;24.40;;;;;;;7.06;100.00;102218.44;4955489;28;20046;-77
2022/04/15 04:08:57;;;;;;;70.32;27.80;;;;;;;7.15;100.00;102218.06;4955836;28;20460;-77
2022/04/15 04:11:23;;;;;;;62.67;26.95;;;;;;;7.20;100.00;102224.22;4939396;29;20046;-77
2022/04/15 04:13:48;;;;;;;65.40;29.33;;;;;;;7.17;100.00;102217.03;4946762;28;20031;-77
2022/04/15 04:16:14;;;;;;;62.30;28.13;;;;;;;7.22;100.00;102222.28;4959963;28;20430;-77
2022/04/15 04:18:43;;;;;;;59.35;28.17;;;;;;;7.24;100.00;102222.22;4957265;28;20037;-77
2022/04/15 04:21:09;;;;;;;87.20;29.10;;;;;;;7.13;100.00;102222.69;4955451;28;20039;-77
2022/04/15 04:23:35;;;;;;;69.43;29.75;;;;;;;7.03;100.00;102219.44;4950531;28;20109;-77
2022/04/15 04:26:02;;;;;;;74.10;28.85;;;;;;;7.03;100.00;102222.19;4973072;28;20458;-77
2022/04/15 04:28:28;;;;;;;67.72;26.50;;;;;;;7.08;100.00;102224.72;4959080;28;20027;-77
2022/04/15 04:30:53;;;;;;;97.70;27.88;;;;;;;7.07;100.00;102226.56;4949956;28;20042;-77
2022/04/15 04:33:19;;;;;;;64.32;29.65;;;;;;;7.23;100.00;102225.91;4950522;28;20042;-77
2022/04/15 04:35:45;;;;;;;63.70;29.35;;;;;;;7.30;100.00;102235.59;4972583;28;20061;-77
2022/04/15 04:38:10;;;;;;;105.50;31.58;;;;;;;7.35;100.00;102239.88;4964495;28;20039;-77
2022/04/15 04:40:36;;;;;;;102.53;29.80;;;;;;;7.66;100.00;102240.38;4950758;28;20068;-77
2022/04/15 04:43:03;;;;;;;73.65;29.35;;;;;;;7.39;100.00;102240.63;4979434;28;20332;-77
2022/04/15 04:45:29;;;;;;;87.63;26.77;;;;;;;7.30;100.00;102250.09;4980997;28;20034;-78
2022/04/15 04:47:56;;;;;;;123.18;29.60;;;;;;;7.32;100.00;102253.63;4974372;29;20074;-77
2022/04/15 04:50:21;;;;;;;76.25;29.27;;;;;;;7.40;100.00;102260.59;4984723;28;20098;-77
2022/04/15 04:52:48;;;;;;;61.90;28.02;;;;;;;7.32;100.00;102263.66;4974627;29;20046;-77
2022/04/15 04:55:14;;;;;;;79.82;26.70;;;;;;;7.31;100.00;102259.13;4968177;28;20130;-78
2022/04/15 04:57:42;;;;;;;61.80;27.27;;;;;;;7.35;100.00;102271.69;4967872;28;20491;-77
2022/04/15 05:00:10;;;;;;;91.93;25.60;;;;;;;7.30;100.00;102277.34;4965775;28;20051;-77
2022/04/15 05:02:36;;;;;;;67.50;28.05;;;;;;;7.42;100.00;102273.19;4980059;28;20042;-77
2022/04/15 05:05:02;;;;;;;51.78;27.52;;;;;;;7.47;100.00;102278.44;4989340;28;20034;-77
2022/04/15 05:07:27;;;;;;;64.10;29.05;;;;;;;7.53;100.00;102280.91;4978983;28;20049;-77
2022/04/15 05:09:53;;;;;;;64.28;28.95;;;;;;;7.55;100.00;102289.91;4957757;29;20475;-76
2022/04/15 05:12:18;;;;;;;62.92;29.38;;;;;;;7.54;100.00;102289.03;4959642;28;20035;-77
2022/04/15 05:14:44;;;;;;;73.18;26.60;;;;;;;7.42;100.00;102297.72;4974577;28;20030;-77
2022/04/15 05:17:09;;;;;;;64.07;24.45;;;;;;;7.48;100.00;102299.31;4963902;28;20047;-77
2022/04/15 05:19:35;;;;;;;55.33;25.92;;;;;;;7.58;100.00;102306.13;4955132;28;20911;-77
2022/04/15 05:22:00;;;;;;;62.00;25.42;;;;;;;7.66;100.00;102300.34;4941877;28;20056;-77
2022/04/15 05:24:26;;;;;;;77.07;25.92;;;;;;;7.64;100.00;102315.88;4968437;28;20043;-77
2022/04/15 05:26:52;;;;;;;62.15;25.40;;;;;;;7.62;100.00;102309.59;4967694;28;20033;-77
2022/04/15 05:29:17;;;;;;;70.95;26.83;;;;;;;7.65;100.00;102309.47;4953557;28;20407;-77
2022/04/15 05:31:43;;;;;;;74.82;24.42;;;;;;;7.57;100.00;102314.38;4959731;28;20399;-77
2022/04/15 05:34:08;;;;;;;74.93;25.92;;;;;;;7.54;100.00;102321.75;4962380;28;20744;-76
2022/04/15 05:36:34;;;;;;;65.43;24.27;;;;;;;7.57;100.00;102325.28;4954220;28;20047;-76
2022/04/15 05:39:00;;;;;;;75.95;26.20;;;;;;;7.64;100.00;102337.69;4960670;28;20043;-77
2022/04/15 05:41:26;;;;;;;57.25;26.02;;;;;;;7.63;100.00;102331.34;4947802;28;20034;-77
2022/04/15 05:43:51;;;;;;;83.00;28.30;;;;;;;7.61;100.00;102335.06;4955678;28;20118;-77
2022/04/15 05:46:18;;;;;;;79.00;28.20;;;;;;;7.55;100.00;102348.03;4950161;28;20515;-77
2022/04/15 05:48:43;;;;;;;135.52;28.95;;;;;;;7.64;100.00;102349.50;4927955;29;20543;-76
2022/04/15 05:51:09;;;;;;;90.20;27.20;;;;;;;7.63;100.00;102358.59;4949116;28;20125;-76
2022/04/15 05:53:34;;;;;;;57.10;27.42;;;;;;;7.58;100.00;102354.31;4964246;28;20047;-77
2022/04/15 05:56:00;;;;;;;76.55;26.60;;;;;;;7.64;100.00;102356.75;4968718;28;20065;-76
2022/04/15 05:58:26;;;;;;;81.68;27.08;;;;;;;7.65;100.00;102362.16;4991174;28;20042;-77
2022/04/15 06:00:51;;;;;;;72.95;25.67;;;;;;;7.64;100.00;102364.94;4976475;28;20042;-77
2022/04/15 06:03:20;;;;;;;79.30;25.48;;;;;;;7.62;100.00;102372.31;4955959;28;20483;-77
2022/04/15 06:05:46;;;;;;;65.57;25.13;;;;;;;7.66;100.00;102374.84;4959975;28;20470;-77
2022/04/15 06:08:12;;;;;;;68.78;26.08;;;;;;;7.70;100.00;102376.47;4959529;28;20034;-78
2022/04/15 06:10:37;;;;;;;87.40;30.33;;;;;;;7.50;100.00;102374.59;4956554;28;20034;-78
2022/04/15 06:13:19;;;;;;;77.60;30.45;;;;;;;7.58;100.00;102378.84;4959394;28;20483;-78
2022/04/15 06:15:53;;;;;;;97.68;29.83;;;;;;;7.61;100.00;102390.50;4961422;28;20042;-77
2022/04/15 06:18:34;;;;;;;75.72;31.75;;;;;;;7.57;100.00;102387.97;4951165;28;20069;-77
2022/04/15 06:21:01;;;;;;;90.28;32.92;;;;;;;7.51;100.00;102392.72;4967830;28;20045;-78
2022/04/15 06:23:26;;;;;;;87.38;32.67;;;;;;;7.53;100.00;102395.38;4989373;28;20065;-77
2022/04/15 06:25:52;;;;;;;92.10;31.52;;;;;;;7.67;100.00;102403.88;4941665;28;20078;-78
2022/04/15 06:28:17;;;;;;;86.32;31.40;;;;;;;7.68;100.00;102402.03;4975043;28;20042;-77
2022/04/15 06:30:43;;;;;;;80.80;29.88;;;;;;;7.70;100.00;102405.56;4939879;28;20034;-78
2022/04/15 06:33:09;;;;;;;69.18;28.73;;;;;;;7.78;100.00;102399.81;4958347;28;20182;-78
2022/04/15 06:35:35;;;;;;;57.38;27.10;;;;;;;7.79;100.00;102415.19;4969418;28;20046;-78
2022/04/15 06:38:01;;;;;;;59.45;25.70;;;;;;;7.69;100.00;102412.88;4990223;28;20386;-78
2022/04/15 06:40:26;;;;;;;51.35;23.50;;;;;;;7.73;100.00;102410.91;4956345;28;20121;-77
2022/04/15 06:42:52;;;;;;;44.90;21.30;;;;;;;7.76;100.00;102401.72;4970291;28;20038;-77
2022/04/15 06:45:17;;;;;;;47.92;22.63;;;;;;;7.79;100.00;102412.47;4952560;28;20039;-77
2022/04/15 06:47:43;;;;;;;43.00;20.38;;;;;;;7.84;100.00;102410.47;4954246;28;20070;-78
2022/04/15 06:50:09;;;;;;;46.30;20.17;;;;;;;7.83;100.00;102422.31;4958871;28;20125;-78
2022/04/15 06:52:34;;;;;;;48.08;19.95;;;;;;;7.64;100.00;102420.38;4974552;28;20038;-81
2022/04/15 06:55:00;;;;;;;49.20;21.92;;;;;;;7.79;100.00;102415.19;4944585;28;20097;-78
2022/04/15 06:57:26;;;;;;;45.38;20.33;;;;;;;7.83;100.00;102420.47;4948857;28;20050;-78
2022/04/15 06:59:51;;;;;;;49.13;22.98;;;;;;;7.84;100.00;102430.44;4976859;28;20043;-78
2022/04/15 07:02:17;;;;;;;48.22;20.15;;;;;;;7.90;100.00;102426.53;4964039;28;20031;-77
2022/04/15 07:04:43;;;;;;;43.05;20.75;;;;;;;7.95;100.00;102429.06;4967576;28;20041;-78
2022/04/15 07:07:09;;;;;;;44.15;20.38;;;;;;;8.13;100.00;102428.28;4957789;28;20395;-78
2022/04/15 07:09:34;;;;;;;46.88;20.27;;;;;;;8.32;100.00;102432.94;4962826;28;20567;-78
2022/04/15 07:12:00;;;;;;;40.08;17.90;;;;;;;8.60;100.00;102438.97;4962284;28;20046;-78
2022/04/15 07:14:26;;;;;;;39.17;17.98;;;;;;;8.82;100.00;102440.69;4956819;28;20039;-77
2022/04/15 07:16:51;;;;;;;42.72;18.83;;;;;;;8.76;100.00;102428.22;4968427;28;20049;-78
2022/04/15 07:19:17;;;;;;;27.30;14.55;;;;;;;8.86;100.00;102433.28;4955718;28;20082;-77
2022/04/15 07:21:43;;;;;;;30.83;14.77;;;;;;;8.92;100.00;102439.34;4967213;28;20046;-78
2022/04/15 07:24:09;;;;;;;24.55;14.38;;;;;;;8.98;100.00;102447.22;4953186;28;20479;-79
2022/04/15 07:26:35;;;;;;;25.30;12.68;;;;;;;9.76;100.00;102447.16;4972030;28;20030;-79
2022/04/15 07:29:01;;;;;;;25.05;12.65;;;;;;;10.37;100.00;102439.53;4963329;28;20041;-78
2022/04/15 07:31:26;;;;;;;24.85;12.77;;;;;;;11.22;100.00;102446.78;4970073;28;20099;-77
2022/04/15 07:33:52;;;;;;;25.42;12.57;;;;;;;10.39;100.00;102446.66;4944912;29;20046;-77
2022/04/15 07:38:59;;;;;;;25.17;11.57;;;;;;;10.44;100.00;102449.16;4959207;28;20039;-79
2022/04/15 07:41:25;;;;;;;22.75;11.00;;;;;;;9.74;100.00;102441.75;4948793;28;20041;-79
2022/04/15 07:43:50;;;;;;;21.98;11.43;;;;;;;9.53;100.00;102454.66;4942445;28;20039;-78
2022/04/15 07:46:16;;;;;;;24.45;11.55;;;;;;;9.54;100.00;102464.63;4957947;28;20026;-78
2022/04/15 07:48:42;;;;;;;21.70;11.52;;;;;;;9.77;100.00;102458.97;4950854;28;20030;-78
2022/04/15 07:51:08;;;;;;;19.23;10.27;;;;;;;9.57;100.00;102460.84;4938168;28;20047;-78
2022/04/15 07:53:33;;;;;;;16.75;10.60;;;;;;;10.11;100.00;102445.34;4958020;28;20089;-78
2022/04/15 07:55:59;;;;;;;14.52;9.32;;;;;;;10.54;100.00;102444.97;4971627;28;20442;-78
2022/04/15 07:58:25;;;;;;;16.30;9.88;;;;;;;10.41;100.00;102454.81;4931419;28;20043;-79
2022/04/15 08:00:51;;;;;;;20.13;10.40;;;;;;;10.43;100.00;102451.03;4952044;28;20110;-79
2022/04/15 08:03:20;;;;;;;16.45;9.43;;;;;;;10.77;100.00;102449.25;4948436;28;20122;-78
2022/04/15 08:05:49;;;;;;;15.25;9.50;;;;;;;11.69;100.00;102453.22;4955217;28;20398;-78
2022/04/15 08:08:14;;;;;;;17.80;8.88;;;;;;;12.56;100.00;102449.91;4950991;28;20023;-79
2022/04/15 08:10:41;;;;;;;14.43;8.90;;;;;;;12.24;100.00;102458.22;4958128;28;22238;-78
2022/04/15 08:13:07;;;;;;;12.35;8.75;;;;;;;11.98;100.00;102448.81;4965849;28;20114;-79
2022/04/15 08:15:33;;;;;;;22.90;8.70;;;;;;;12.00;100.00;102443.22;4968458;28;20039;-79
2022/04/15 08:17:58;;;;;;;22.08;8.98;;;;;;;12.26;100.00;102453.53;4953642;28;20038;-80
2022/04/15 08:20:25;;;;;;;20.25;9.15;;;;;;;11.74;100.00;102449.25;4944738;28;20031;-78
2022/04/15 08:22:50;;;;;;;23.52;7.55;;;;;;;12.08;100.00;102450.03;4953229;28;20042;-78
2022/04/15 08:25:16;;;;;;;13.02;7.88;;;;;;;11.58;100.00;102446.50;4983792;28;20092;-78
2022/04/15 08:27:41;;;;;;;15.05;7.68;;;;;;;11.67;100.00;102436.84;4944913;28;20392;-78
2022/04/15 08:30:07;;;;;;;12.57;7.43;;;;;;;11.69;100.00;102445.00;4959818;28;20042;-78
2022/04/15 08:32:35;;;;;;;12.88;7.80;;;;;;;11.36;100.00;102449.63;4970574;28;20050;-78
2022/04/15 08:35:06;;;;;;;12.10;7.28;;;;;;;12.60;100.00;102456.09;4960824;28;20034;-78
2022/04/15 08:37:32;;;;;;;11.35;7.63;;;;;;;12.71;100.00;102456.31;4969906;28;20053;-78
2022/04/15 08:39:57;;;;;;;12.95;7.93;;;;;;;12.68;100.00;102451.00;4949311;28;20035;-78
2022/04/15 08:42:23;;;;;;;13.70;6.38;;;;;;;12.36;100.00;102455.72;4955024;28;20034;-78
2022/04/15 08:44:51;;;;;;;10.85;7.55;;;;;;;12.46;100.00;102456.91;4990328;28;20037;-79
2022/04/15 08:47:18;;;;;;;9.63;6.90;;;;;;;11.88;100.00;102456.66;4958688;28;20065;-78
2022/04/15 08:49:45;;;;;;;11.57;7.38;;;;;;;11.91;100.00;102463.84;4991887;28;20026;-78
2022/04/15 08:52:14;;;;;;;12.52;7.30;;;;;;;12.41;100.00;102459.06;4970153;28;20045;-79
2022/04/15 08:54:40;;;;;;;11.63;7.53;;;;;;;12.17;100.00;102466.91;4966826;28;20427;-79
2022/04/15 08:57:06;;;;;;;11.45;7.03;;;;;;;11.97;100.00;102465.38;4960239;28;20049;-79
2022/04/15 08:59:32;;;;;;;12.98;7.28;;;;;;;12.03;100.00;102465.88;4959967;28;20030;-78
2022/04/15 09:01:57;;;;;;;9.93;6.85;;;;;;;11.91;100.00;102463.84;4961023;28;20237;-78
2022/04/15 09:04:23;;;;;;;18.40;8.07;;;;;;;11.82;100.00;102468.00;4955422;28;20035;-78
2022/04/15 09:06:56;;;;;;;12.70;6.95;;;;;;;11.53;100.00;102469.72;4972141;28;20092;-79
2022/04/15 09:09:29;;;;;;;12.13;6.22;;;;;;;11.86;100.00;102475.09;4957321;28;20557;-79
2022/04/15 09:11:59;;;;;;;14.85;7.07;;;;;;;12.43;100.00;102470.84;4975748;28;20037;-79
2022/04/15 09:14:25;;;;;;;8.98;7.07;;;;;;;11.89;100.00;102482.28;4989951;28;20046;-79
2022/04/15 09:16:51;;;;;;;13.77;6.70;;;;;;;11.99;100.00;102479.91;4937653;28;20510;-79
2022/04/15 09:19:17;;;;;;;14.10;6.93;;;;;;;11.94;100.00;102489.28;4956133;28;20034;-79
2022/04/15 09:21:55;;;;;;;9.00;6.57;;;;;;;12.14;100.00;102492.72;4964346;28;20174;-78
2022/04/15 09:24:27;;;;;;;18.30;7.13;;;;;;;13.04;100.00;102490.91;4994040;28;20034;-78
2022/04/15 09:26:53;;;;;;;8.43;6.50;;;;;;;12.93;100.00;102476.94;4963875;28;20046;-79
2022/04/15 09:29:21;;;;;;;9.68;7.00;;;;;;;13.36;100.00;102486.13;4949054;28;20043;-80
2022/04/15 09:31:47;;;;;;;9.95;6.32;;;;;;;13.10;100.00;102486.84;4974621;28;20038;-79
2022/04/15 09:34:13;;;;;;;8.82;5.95;;;;;;;14.12;100.00;102487.50;4966680;28;20505;-79
2022/04/15 09:36:39;;;;;;;7.50;5.45;;;;;;;14.61;100.00;102482.38;4963063;28;20431;-79
2022/04/15 09:39:16;;;;;;;11.65;5.72;;;;;;;14.24;100.00;102502.31;4992537;28;20117;-79
2022/04/15 09:41:49;;;;;;;9.43;5.72;;;;;;;14.00;100.00;102493.81;4959116;28;20427;-80
2022/04/15 09:44:15;;;;;;;8.50;6.00;;;;;;;13.72;100.00;102503.94;4973768;28;20046;-79
2022/04/15 09:46:44;;;;;;;6.68;5.35;;;;;;;13.07;100.00;102507.22;4958557;28;20546;-79
2022/04/15 09:49:11;;;;;;;8.68;5.30;;;;;;;12.79;100.00;102492.44;4964725;28;20045;-79
2022/04/15 09:51:52;;;;;;;7.40;5.78;;;;;;;12.63;100.00;102500.75;4952727;28;20038;-79
2022/04/15 09:54:23;;;;;;;9.20;5.75;;;;;;;12.26;100.00;102504.81;4957484;28;20110;-79
2022/04/15 09:56:49;;;;;;;8.38;5.47;;;;;;;13.17;100.00;102505.63;4987046;28;20137;-79
2022/04/15 09:59:16;;;;;;;11.00;5.50;;;;;;;13.40;100.00;102503.31;4958655;28;20101;-79
2022/04/15 10:01:46;;;;;;;7.90;5.45;;;;;;;13.12;100.00;102498.63;4990026;28;20034;-80
2022/04/15 10:04:13;;;;;;;8.98;5.63;;;;;;;12.76;100.00;102502.75;4963978;28;20390;-79
2022/04/15 10:06:40;;;;;;;10.50;5.80;;;;;;;13.23;100.00;102507.09;4940195;28;20536;-79
2022/04/15 10:09:10;;;;;;;6.93;5.45;;;;;;;14.03;100.00;102501.88;4959976;28;20035;-79
2022/04/15 10:11:39;;;;;;;6.55;5.30;;;;;;;13.45;100.00;102503.00;4977980;28;20461;-79
2022/04/15 10:14:06;;;;;;;6.75;4.78;;;;;;;13.77;100.00;102499.03;4994138;28;20041;-79
2022/04/15 10:16:38;;;;;;;9.65;5.57;;;;;;;13.47;100.00;102499.16;4963874;28;20042;-79
2022/04/15 10:19:04;;;;;;;8.20;5.35;;;;;;;13.46;100.00;102502.88;4969034;28;20034;-78
2022/04/15 10:21:34;;;;;;;8.45;5.28;;;;;;;13.35;100.00;102492.59;4960983;28;20038;-79
2022/04/15 10:24:01;;;;;;;8.52;5.18;;;;;;;13.32;100.00;102498.28;4991556;28;20062;-79
2022/04/15 10:26:32;;;;;;;7.53;5.22;;;;;;;12.94;100.00;102498.84;4963415;28;20029;-79
2022/04/15 10:29:03;;;;;;;9.73;4.95;;;;;;;13.40;100.00;102493.19;4979928;28;20041;-79
2022/04/15 10:31:43;;;;;;;7.78;5.00;;;;;;;13.19;100.00;102491.78;4962762;28;20045;-79
2022/04/15 10:34:14;;;;;;;7.88;4.72;;;;;;;13.81;100.00;102502.47;4988517;28;20028;-79
2022/04/15 10:36:50;;;;;;;6.50;4.50;;;;;;;14.16;100.00;102493.69;4986268;28;20117;-79
2022/04/15 10:39:18;;;;;;;7.95;5.20;;;;;;;13.70;100.00;102500.41;4946392;28;20165;-79
2022/04/15 10:41:55;;;;;;;6.82;4.88;;;;;;;13.65;100.00;102499.81;4980274;28;20038;-79
2022/04/15 10:44:36;;;;;;;5.93;4.97;;;;;;;13.38;100.00;102495.16;4974335;28;20483;-80
2022/04/15 10:47:17;;;;;;;6.28;4.93;;;;;;;14.22;100.00;102484.13;4960403;28;20034;-79
2022/04/15 10:49:58;;;;;;;8.25;5.18;;;;;;;14.52;99.20;102487.50;4995739;28;20042;-80
2022/04/15 10:52:26;;;;;;;8.65;4.88;;;;;;;14.24;100.00;102482.16;4973270;28;20045;-79
2022/04/15 10:54:54;;;;;;;5.85;5.15;;;;;;;14.58;97.41;102477.94;4988013;28;20034;-79
2022/04/15 10:57:22;;;;;;;5.13;4.63;;;;;;;13.79;100.00;102474.16;4975054;28;20490;-80
2022/04/15 11:02:52;;;;;;;6.72;4.88;;;;;;;14.41;98.47;102486.50;4940724;28;20473;-80
2022/04/15 11:05:35;;;;;;;6.15;4.72;;;;;;;15.15;98.14;102484.06;4951320;28;20035;-79
2022/04/15 11:08:06;;;;;;;5.45;4.68;;;;;;;15.07;93.71;102492.91;4985770;28;20042;-79
2022/04/15 11:11:03;;;;;;;12.25;4.32;;;;;;;14.96;96.25;102484.50;4959892;28;20081;-79
2022/04/15 11:13:43;;;;;;;7.70;4.68;;;;;;;14.83;91.21;102488.13;4973404;28;20398;-79